Lovington, Illinois
Current Conditions -  °F | °C
As of 9:54 AM on Monday 24 Nov 2014 (Local Time) from KDEC Reporting Station
Overcast Overcast  
Wind Chill: 25°   Ceiling: 1800
Heat Index: 36°   Visibility: 10mi
Dew Point: 31°   Wind: 22mph
Humidity: 82%   Direction: 260°W
Pressure: 29.53"   Gusts: 37mph
Location:  39.72°N, 88.63°W
Report Text: KDEC 241554Z 26019G32KT 10SM SCT011 OVC018 02/M01 A2953 RMK AO2 PK WND 27032/1501 SLP000 T00221006
Loading
Personal Weather Stations






























Interactive Weather Map New forecast layout! Learn more

10-Day Weather Forecast

Advertisements
Track Severe Weather on mobile